sensor_id;sensor_type;location;lat;lon;timestamp;P1;durP1;ratioP1;P2;durP2;ratioP2
45208;SDS011;30951;43.994;26.260;2023-02-28T00:00:07;16.50;;;12.57;;
45208;SDS011;30951;43.994;26.260;2023-02-28T00:02:35;12.63;;;9.90;;
45208;SDS011;30951;43.994;26.260;2023-02-28T00:05:01;16.63;;;10.15;;
45208;SDS011;30951;43.994;26.260;2023-02-28T00:07:28;14.90;;;10.93;;
45208;SDS011;30951;43.994;26.260;2023-02-28T00:09:54;17.33;;;11.98;;
45208;SDS011;30951;43.994;26.260;2023-02-28T00:12:19;17.88;;;12.93;;
45208;SDS011;30951;43.994;26.260;2023-02-28T00:14:45;17.10;;;11.93;;
45208;SDS011;30951;43.994;26.260;2023-02-28T00:17:10;14.98;;;11.18;;
45208;SDS011;30951;43.994;26.260;2023-02-28T00:19:36;13.82;;;10.55;;
45208;SDS011;30951;43.994;26.260;2023-02-28T00:22:01;17.33;;;12.18;;
45208;SDS011;30951;43.994;26.260;2023-02-28T00:24:27;15.63;;;12.80;;
45208;SDS011;30951;43.994;26.260;2023-02-28T00:26:52;17.23;;;12.57;;
45208;SDS011;30951;43.994;26.260;2023-02-28T00:29:18;18.08;;;13.45;;
45208;SDS011;30951;43.994;26.260;2023-02-28T00:31:43;18.23;;;13.02;;
45208;SDS011;30951;43.994;26.260;2023-02-28T00:34:09;16.85;;;13.15;;
45208;SDS011;30951;43.994;26.260;2023-02-28T00:36:34;18.30;;;12.70;;
45208;SDS011;30951;43.994;26.260;2023-02-28T00:38:59;16.58;;;12.52;;
45208;SDS011;30951;43.994;26.260;2023-02-28T00:41:25;18.55;;;13.32;;
45208;SDS011;30951;43.994;26.260;2023-02-28T00:43:51;17.58;;;12.63;;
45208;SDS011;30951;43.994;26.260;2023-02-28T00:46:16;16.85;;;13.35;;
45208;SDS011;30951;43.994;26.260;2023-02-28T00:48:42;20.02;;;13.48;;
45208;SDS011;30951;43.994;26.260;2023-02-28T00:51:07;18.50;;;12.57;;
45208;SDS011;30951;43.994;26.260;2023-02-28T00:53:33;16.80;;;11.45;;
45208;SDS011;30951;43.994;26.260;2023-02-28T00:55:58;18.83;;;12.52;;
45208;SDS011;30951;43.994;26.260;2023-02-28T00:58:24;17.05;;;13.15;;
45208;SDS011;30951;43.994;26.260;2023-02-28T01:00:50;17.20;;;11.27;;
45208;SDS011;30951;43.994;26.260;2023-02-28T01:03:18;16.60;;;12.23;;
45208;SDS011;30951;43.994;26.260;2023-02-28T01:05:44;15.95;;;11.40;;
45208;SDS011;30951;43.994;26.260;2023-02-28T01:08:10;13.90;;;10.23;;
45208;SDS011;30951;43.994;26.260;2023-02-28T01:10:36;14.10;;;10.85;;
45208;SDS011;30951;43.994;26.260;2023-02-28T01:13:02;16.05;;;12.20;;
45208;SDS011;30951;43.994;26.260;2023-02-28T01:15:28;14.63;;;11.18;;
45208;SDS011;30951;43.994;26.260;2023-02-28T01:17:53;15.65;;;11.98;;
45208;SDS011;30951;43.994;26.260;2023-02-28T01:20:19;14.43;;;10.98;;
45208;SDS011;30951;43.994;26.260;2023-02-28T01:22:44;15.23;;;12.13;;
45208;SDS011;30951;43.994;26.260;2023-02-28T01:25:10;15.95;;;11.40;;
45208;SDS011;30951;43.994;26.260;2023-02-28T01:27:35;16.52;;;12.25;;
45208;SDS011;30951;43.994;26.260;2023-02-28T01:30:02;16.35;;;12.02;;
45208;SDS011;30951;43.994;26.260;2023-02-28T01:32:28;14.75;;;11.30;;
45208;SDS011;30951;43.994;26.260;2023-02-28T01:34:53;15.90;;;11.20;;
45208;SDS011;30951;43.994;26.260;2023-02-28T01:37:19;13.45;;;10.07;;
45208;SDS011;30951;43.994;26.260;2023-02-28T01:39:44;17.33;;;12.40;;
45208;SDS011;30951;43.994;26.260;2023-02-28T01:42:10;16.98;;;13.65;;
45208;SDS011;30951;43.994;26.260;2023-02-28T01:47:30;17.27;;;13.00;;
45208;SDS011;30951;43.994;26.260;2023-02-28T01:49:58;17.35;;;13.15;;
45208;SDS011;30951;43.994;26.260;2023-02-28T01:52:24;20.90;;;13.88;;
45208;SDS011;30951;43.994;26.260;2023-02-28T01:54:54;18.25;;;12.65;;
45208;SDS011;30951;43.994;26.260;2023-02-28T01:57:22;16.20;;;12.98;;
45208;SDS011;30951;43.994;26.260;2023-02-28T01:59:52;16.38;;;12.40;;
45208;SDS011;30951;43.994;26.260;2023-02-28T02:02:22;16.90;;;12.23;;
45208;SDS011;30951;43.994;26.260;2023-02-28T02:04:53;16.88;;;13.02;;
45208;SDS011;30951;43.994;26.260;2023-02-28T02:07:20;18.92;;;13.45;;
45208;SDS011;30951;43.994;26.260;2023-02-28T02:09:46;18.75;;;13.68;;
45208;SDS011;30951;43.994;26.260;2023-02-28T02:12:21;21.23;;;14.07;;
45208;SDS011;30951;43.994;26.260;2023-02-28T02:17:48;19.25;;;14.35;;
45208;SDS011;30951;43.994;26.260;2023-02-28T02:20:41;20.55;;;14.95;;
45208;SDS011;30951;43.994;26.260;2023-02-28T02:23:13;23.48;;;15.93;;
45208;SDS011;30951;43.994;26.260;2023-02-28T02:26:06;22.30;;;15.55;;
45208;SDS011;30951;43.994;26.260;2023-02-28T02:39:27;23.17;;;15.23;;
45208;SDS011;30951;43.994;26.260;2023-02-28T02:41:55;25.58;;;18.38;;
45208;SDS011;30951;43.994;26.260;2023-02-28T02:44:30;24.35;;;17.55;;
45208;SDS011;30951;43.994;26.260;2023-02-28T02:47:02;24.10;;;17.48;;
45208;SDS011;30951;43.994;26.260;2023-02-28T02:49:31;24.25;;;16.45;;
45208;SDS011;30951;43.994;26.260;2023-02-28T02:51:58;28.35;;;18.45;;
45208;SDS011;30951;43.994;26.260;2023-02-28T02:54:28;26.83;;;17.77;;
45208;SDS011;30951;43.994;26.260;2023-02-28T02:57:00;24.88;;;16.95;;
45208;SDS011;30951;43.994;26.260;2023-02-28T02:59:29;29.45;;;18.92;;
45208;SDS011;30951;43.994;26.260;2023-02-28T03:01:57;25.80;;;14.82;;
45208;SDS011;30951;43.994;26.260;2023-02-28T03:04:24;26.85;;;17.00;;
45208;SDS011;30951;43.994;26.260;2023-02-28T03:06:53;28.20;;;19.60;;
45208;SDS011;30951;43.994;26.260;2023-02-28T03:09:22;24.75;;;17.60;;
45208;SDS011;30951;43.994;26.260;2023-02-28T03:11:47;25.85;;;17.92;;
45208;SDS011;30951;43.994;26.260;2023-02-28T03:22:59;27.17;;;19.75;;
45208;SDS011;30951;43.994;26.260;2023-02-28T03:36:32;26.13;;;14.70;;
45208;SDS011;30951;43.994;26.260;2023-02-28T03:39:10;29.63;;;19.25;;
45208;SDS011;30951;43.994;26.260;2023-02-28T03:41:43;29.50;;;18.30;;
45208;SDS011;30951;43.994;26.260;2023-02-28T03:47:19;31.95;;;19.55;;
45208;SDS011;30951;43.994;26.260;2023-02-28T03:49:46;34.95;;;21.08;;
45208;SDS011;30951;43.994;26.260;2023-02-28T03:52:16;30.80;;;19.75;;
45208;SDS011;30951;43.994;26.260;2023-02-28T03:54:44;33.33;;;21.60;;
45208;SDS011;30951;43.994;26.260;2023-02-28T04:00:40;32.47;;;19.67;;
45208;SDS011;30951;43.994;26.260;2023-02-28T04:02:47;33.03;;;20.58;;
45208;SDS011;30951;43.994;26.260;2023-02-28T04:05:18;37.85;;;22.85;;
45208;SDS011;30951;43.994;26.260;2023-02-28T04:07:44;38.05;;;22.33;;
45208;SDS011;30951;43.994;26.260;2023-02-28T04:10:10;33.75;;;21.52;;
45208;SDS011;30951;43.994;26.260;2023-02-28T04:12:36;34.90;;;22.08;;
45208;SDS011;30951;43.994;26.260;2023-02-28T04:15:02;34.67;;;22.25;;
45208;SDS011;30951;43.994;26.260;2023-02-28T04:17:27;35.42;;;20.80;;
45208;SDS011;30951;43.994;26.260;2023-02-28T04:19:53;35.22;;;22.23;;
45208;SDS011;30951;43.994;26.260;2023-02-28T04:22:21;29.60;;;18.55;;
45208;SDS011;30951;43.994;26.260;2023-02-28T04:24:47;29.98;;;19.65;;
45208;SDS011;30951;43.994;26.260;2023-02-28T04:27:12;34.65;;;22.80;;
45208;SDS011;30951;43.994;26.260;2023-02-28T04:29:40;37.80;;;23.77;;
45208;SDS011;30951;43.994;26.260;2023-02-28T04:32:09;33.72;;;20.05;;
45208;SDS011;30951;43.994;26.260;2023-02-28T04:34:35;34.90;;;20.77;;
45208;SDS011;30951;43.994;26.260;2023-02-28T04:37:01;35.08;;;22.73;;
45208;SDS011;30951;43.994;26.260;2023-02-28T04:39:28;35.80;;;21.40;;
45208;SDS011;30951;43.994;26.260;2023-02-28T04:41:54;34.25;;;20.63;;
45208;SDS011;30951;43.994;26.260;2023-02-28T04:44:20;35.72;;;22.05;;
45208;SDS011;30951;43.994;26.260;2023-02-28T04:46:47;30.70;;;20.15;;
45208;SDS011;30951;43.994;26.260;2023-02-28T04:49:13;34.33;;;21.00;;
45208;SDS011;30951;43.994;26.260;2023-02-28T04:51:39;35.13;;;22.25;;
45208;SDS011;30951;43.994;26.260;2023-02-28T04:54:04;33.45;;;20.75;;
45208;SDS011;30951;43.994;26.260;2023-02-28T04:56:30;35.00;;;17.88;;
45208;SDS011;30951;43.994;26.260;2023-02-28T04:58:55;32.00;;;18.73;;
45208;SDS011;30951;43.994;26.260;2023-02-28T05:01:22;35.00;;;20.70;;
45208;SDS011;30951;43.994;26.260;2023-02-28T05:03:48;34.40;;;21.25;;
45208;SDS011;30951;43.994;26.260;2023-02-28T05:06:14;32.58;;;19.60;;
45208;SDS011;30951;43.994;26.260;2023-02-28T05:08:40;33.42;;;19.88;;
45208;SDS011;30951;43.994;26.260;2023-02-28T05:11:07;34.78;;;21.50;;
45208;SDS011;30951;43.994;26.260;2023-02-28T05:16:02;26.83;;;16.30;;
45208;SDS011;30951;43.994;26.260;2023-02-28T05:18:28;34.13;;;19.85;;
45208;SDS011;30951;43.994;26.260;2023-02-28T05:20:53;31.15;;;18.45;;
45208;SDS011;30951;43.994;26.260;2023-02-28T05:23:19;23.20;;;14.73;;
45208;SDS011;30951;43.994;26.260;2023-02-28T05:25:48;27.90;;;17.60;;
45208;SDS011;30951;43.994;26.260;2023-02-28T05:28:13;32.13;;;20.77;;
45208;SDS011;30951;43.994;26.260;2023-02-28T05:30:39;30.63;;;18.38;;
45208;SDS011;30951;43.994;26.260;2023-02-28T05:33:04;30.15;;;19.17;;
45208;SDS011;30951;43.994;26.260;2023-02-28T05:35:30;30.10;;;18.55;;
45208;SDS011;30951;43.994;26.260;2023-02-28T05:37:55;32.67;;;20.27;;
45208;SDS011;30951;43.994;26.260;2023-02-28T05:40:21;31.35;;;16.85;;
45208;SDS011;30951;43.994;26.260;2023-02-28T05:42:46;32.55;;;20.23;;
45208;SDS011;30951;43.994;26.260;2023-02-28T05:45:12;31.88;;;17.90;;
45208;SDS011;30951;43.994;26.260;2023-02-28T05:47:38;36.30;;;19.13;;
45208;SDS011;30951;43.994;26.260;2023-02-28T05:50:03;33.15;;;19.60;;
45208;SDS011;30951;43.994;26.260;2023-02-28T05:52:30;32.63;;;19.42;;
45208;SDS011;30951;43.994;26.260;2023-02-28T05:54:55;35.97;;;21.05;;
45208;SDS011;30951;43.994;26.260;2023-02-28T05:57:21;32.28;;;20.92;;
45208;SDS011;30951;43.994;26.260;2023-02-28T05:59:47;33.35;;;19.73;;
45208;SDS011;30951;43.994;26.260;2023-02-28T06:02:13;27.38;;;17.75;;
45208;SDS011;30951;43.994;26.260;2023-02-28T06:04:39;34.97;;;19.85;;
45208;SDS011;30951;43.994;26.260;2023-02-28T06:07:06;24.60;;;13.90;;
45208;SDS011;30951;43.994;26.260;2023-02-28T06:09:31;39.28;;;24.40;;
45208;SDS011;30951;43.994;26.260;2023-02-28T06:11:58;33.20;;;22.08;;
45208;SDS011;30951;43.994;26.260;2023-02-28T06:14:24;28.35;;;17.77;;
45208;SDS011;30951;43.994;26.260;2023-02-28T06:16:50;32.45;;;15.70;;
45208;SDS011;30951;43.994;26.260;2023-02-28T06:19:15;31.60;;;19.92;;
45208;SDS011;30951;43.994;26.260;2023-02-28T06:21:41;36.10;;;21.40;;
45208;SDS011;30951;43.994;26.260;2023-02-28T06:24:06;41.92;;;25.20;;
45208;SDS011;30951;43.994;26.260;2023-02-28T06:26:32;33.08;;;18.90;;
45208;SDS011;30951;43.994;26.260;2023-02-28T06:28:58;34.60;;;20.67;;
45208;SDS011;30951;43.994;26.260;2023-02-28T06:31:23;34.25;;;21.75;;
45208;SDS011;30951;43.994;26.260;2023-02-28T06:33:51;34.65;;;21.65;;
45208;SDS011;30951;43.994;26.260;2023-02-28T06:36:16;37.65;;;24.33;;
45208;SDS011;30951;43.994;26.260;2023-02-28T06:38:42;40.42;;;25.38;;
45208;SDS011;30951;43.994;26.260;2023-02-28T06:41:08;31.70;;;21.17;;
45208;SDS011;30951;43.994;26.260;2023-02-28T06:43:35;36.20;;;21.95;;
45208;SDS011;30951;43.994;26.260;2023-02-28T06:46:04;36.83;;;23.10;;
45208;SDS011;30951;43.994;26.260;2023-02-28T06:48:31;29.52;;;18.50;;
45208;SDS011;30951;43.994;26.260;2023-02-28T06:51:10;31.67;;;17.98;;
45208;SDS011;30951;43.994;26.260;2023-02-28T06:53:38;34.15;;;20.08;;
45208;SDS011;30951;43.994;26.260;2023-02-28T06:56:04;39.08;;;23.00;;
45208;SDS011;30951;43.994;26.260;2023-02-28T06:58:31;32.70;;;20.75;;
45208;SDS011;30951;43.994;26.260;2023-02-28T07:00:57;70.55;;;42.70;;
45208;SDS011;30951;43.994;26.260;2023-02-28T07:03:22;245.50;;;120.65;;
45208;SDS011;30951;43.994;26.260;2023-02-28T07:05:48;41.05;;;26.88;;
45208;SDS011;30951;43.994;26.260;2023-02-28T07:08:14;51.10;;;35.70;;
45208;SDS011;30951;43.994;26.260;2023-02-28T07:10:39;42.17;;;27.63;;
45208;SDS011;30951;43.994;26.260;2023-02-28T07:13:05;38.92;;;23.40;;
45208;SDS011;30951;43.994;26.260;2023-02-28T07:15:32;46.65;;;29.85;;
45208;SDS011;30951;43.994;26.260;2023-02-28T07:17:57;40.17;;;23.13;;
45208;SDS011;30951;43.994;26.260;2023-02-28T07:20:23;40.53;;;24.88;;
45208;SDS011;30951;43.994;26.260;2023-02-28T07:22:49;43.33;;;26.35;;
45208;SDS011;30951;43.994;26.260;2023-02-28T07:25:24;43.47;;;28.02;;
45208;SDS011;30951;43.994;26.260;2023-02-28T07:27:53;41.88;;;25.80;;
45208;SDS011;30951;43.994;26.260;2023-02-28T07:30:19;40.10;;;23.77;;
45208;SDS011;30951;43.994;26.260;2023-02-28T07:32:45;37.50;;;22.35;;
45208;SDS011;30951;43.994;26.260;2023-02-28T07:35:11;35.92;;;23.20;;
45208;SDS011;30951;43.994;26.260;2023-02-28T07:37:36;32.90;;;21.90;;
45208;SDS011;30951;43.994;26.260;2023-02-28T07:40:03;35.00;;;21.17;;
45208;SDS011;30951;43.994;26.260;2023-02-28T07:42:31;36.20;;;23.13;;
45208;SDS011;30951;43.994;26.260;2023-02-28T07:44:57;36.95;;;23.02;;
45208;SDS011;30951;43.994;26.260;2023-02-28T07:47:24;32.15;;;20.75;;
45208;SDS011;30951;43.994;26.260;2023-02-28T07:49:49;34.55;;;20.75;;
45208;SDS011;30951;43.994;26.260;2023-02-28T07:52:15;34.17;;;21.42;;
45208;SDS011;30951;43.994;26.260;2023-02-28T07:54:41;32.65;;;20.48;;
45208;SDS011;30951;43.994;26.260;2023-02-28T07:57:06;32.22;;;20.23;;
45208;SDS011;30951;43.994;26.260;2023-02-28T07:59:32;37.13;;;21.55;;
45208;SDS011;30951;43.994;26.260;2023-02-28T08:01:57;31.92;;;18.80;;
45208;SDS011;30951;43.994;26.260;2023-02-28T08:04:24;35.95;;;22.48;;
45208;SDS011;30951;43.994;26.260;2023-02-28T08:06:49;34.03;;;20.98;;
45208;SDS011;30951;43.994;26.260;2023-02-28T08:09:17;28.27;;;18.13;;
45208;SDS011;30951;43.994;26.260;2023-02-28T08:11:42;35.47;;;20.48;;
45208;SDS011;30951;43.994;26.260;2023-02-28T08:14:08;28.05;;;20.13;;
45208;SDS011;30951;43.994;26.260;2023-02-28T08:16:33;30.42;;;20.63;;
45208;SDS011;30951;43.994;26.260;2023-02-28T08:18:59;31.65;;;19.75;;
45208;SDS011;30951;43.994;26.260;2023-02-28T08:21:24;30.48;;;20.77;;
45208;SDS011;30951;43.994;26.260;2023-02-28T08:23:50;32.30;;;21.63;;
45208;SDS011;30951;43.994;26.260;2023-02-28T08:26:16;24.70;;;15.48;;
45208;SDS011;30951;43.994;26.260;2023-02-28T08:28:43;33.83;;;21.95;;
45208;SDS011;30951;43.994;26.260;2023-02-28T08:31:13;24.70;;;15.32;;
45208;SDS011;30951;43.994;26.260;2023-02-28T08:33:40;27.60;;;17.90;;
45208;SDS011;30951;43.994;26.260;2023-02-28T08:36:07;30.90;;;20.73;;
45208;SDS011;30951;43.994;26.260;2023-02-28T08:38:33;29.02;;;19.02;;
45208;SDS011;30951;43.994;26.260;2023-02-28T08:40:59;30.95;;;20.00;;
45208;SDS011;30951;43.994;26.260;2023-02-28T08:43:25;28.73;;;18.92;;
45208;SDS011;30951;43.994;26.260;2023-02-28T08:45:52;28.67;;;19.33;;
45208;SDS011;30951;43.994;26.260;2023-02-28T08:48:17;29.23;;;18.27;;
45208;SDS011;30951;43.994;26.260;2023-02-28T08:50:43;33.03;;;21.50;;
45208;SDS011;30951;43.994;26.260;2023-02-28T08:53:08;27.60;;;20.50;;
45208;SDS011;30951;43.994;26.260;2023-02-28T08:55:34;24.60;;;16.33;;
45208;SDS011;30951;43.994;26.260;2023-02-28T08:57:59;27.08;;;18.30;;
45208;SDS011;30951;43.994;26.260;2023-02-28T09:00:26;31.45;;;20.02;;
45208;SDS011;30951;43.994;26.260;2023-02-28T09:02:51;30.98;;;20.52;;
45208;SDS011;30951;43.994;26.260;2023-02-28T09:05:17;33.38;;;22.23;;
45208;SDS011;30951;43.994;26.260;2023-02-28T09:07:42;31.42;;;18.17;;
45208;SDS011;30951;43.994;26.260;2023-02-28T09:10:08;33.15;;;20.35;;
45208;SDS011;30951;43.994;26.260;2023-02-28T09:12:34;24.85;;;16.38;;
45208;SDS011;30951;43.994;26.260;2023-02-28T09:15:00;30.17;;;19.25;;
45208;SDS011;30951;43.994;26.260;2023-02-28T09:17:26;31.27;;;20.80;;
45208;SDS011;30951;43.994;26.260;2023-02-28T09:19:51;34.22;;;22.00;;
45208;SDS011;30951;43.994;26.260;2023-02-28T09:22:17;32.60;;;19.95;;
45208;SDS011;30951;43.994;26.260;2023-02-28T09:24:42;29.42;;;19.58;;
45208;SDS011;30951;43.994;26.260;2023-02-28T09:27:09;32.78;;;20.83;;
45208;SDS011;30951;43.994;26.260;2023-02-28T09:29:35;30.90;;;21.05;;
45208;SDS011;30951;43.994;26.260;2023-02-28T09:32:00;27.58;;;18.67;;
45208;SDS011;30951;43.994;26.260;2023-02-28T09:34:27;34.15;;;22.15;;
45208;SDS011;30951;43.994;26.260;2023-02-28T09:36:53;35.92;;;22.23;;
45208;SDS011;30951;43.994;26.260;2023-02-28T09:39:23;27.92;;;18.52;;
45208;SDS011;30951;43.994;26.260;2023-02-28T09:41:52;30.42;;;19.73;;
45208;SDS011;30951;43.994;26.260;2023-02-28T09:44:24;38.30;;;23.10;;
45208;SDS011;30951;43.994;26.260;2023-02-28T09:46:53;33.70;;;20.92;;
45208;SDS011;30951;43.994;26.260;2023-02-28T09:49:39;27.52;;;18.00;;
45208;SDS011;30951;43.994;26.260;2023-02-28T09:52:17;38.20;;;20.98;;
45208;SDS011;30951;43.994;26.260;2023-02-28T09:54:44;34.25;;;19.70;;
45208;SDS011;30951;43.994;26.260;2023-02-28T09:57:15;38.20;;;24.13;;
45208;SDS011;30951;43.994;26.260;2023-02-28T10:05:16;25.83;;;17.17;;
45208;SDS011;30951;43.994;26.260;2023-02-28T10:10:17;33.97;;;22.13;;
45208;SDS011;30951;43.994;26.260;2023-02-28T10:12:46;31.85;;;18.63;;
45208;SDS011;30951;43.994;26.260;2023-02-28T10:15:15;32.22;;;18.98;;
45208;SDS011;30951;43.994;26.260;2023-02-28T10:17:42;38.90;;;23.30;;
45208;SDS011;30951;43.994;26.260;2023-02-28T10:20:28;35.88;;;22.38;;
45208;SDS011;30951;43.994;26.260;2023-02-28T10:22:58;34.35;;;24.77;;
45208;SDS011;30951;43.994;26.260;2023-02-28T10:25:27;40.72;;;23.30;;
45208;SDS011;30951;43.994;26.260;2023-02-28T10:28:28;35.20;;;21.30;;
45208;SDS011;30951;43.994;26.260;2023-02-28T10:30:46;32.60;;;21.75;;
45208;SDS011;30951;43.994;26.260;2023-02-28T10:35:59;35.13;;;22.48;;
45208;SDS011;30951;43.994;26.260;2023-02-28T10:38:33;39.92;;;24.98;;
45208;SDS011;30951;43.994;26.260;2023-02-28T10:41:07;34.78;;;21.70;;
45208;SDS011;30951;43.994;26.260;2023-02-28T10:43:34;35.65;;;23.05;;
45208;SDS011;30951;43.994;26.260;2023-02-28T10:46:02;36.38;;;21.98;;
45208;SDS011;30951;43.994;26.260;2023-02-28T10:51:10;43.38;;;24.42;;
45208;SDS011;30951;43.994;26.260;2023-02-28T11:06:47;37.47;;;22.70;;
45208;SDS011;30951;43.994;26.260;2023-02-28T11:09:36;41.92;;;24.63;;
45208;SDS011;30951;43.994;26.260;2023-02-28T11:12:04;37.28;;;24.08;;
45208;SDS011;30951;43.994;26.260;2023-02-28T11:14:32;34.97;;;23.10;;
45208;SDS011;30951;43.994;26.260;2023-02-28T11:17:23;38.13;;;24.42;;
45208;SDS011;30951;43.994;26.260;2023-02-28T11:19:50;38.92;;;25.08;;
45208;SDS011;30951;43.994;26.260;2023-02-28T11:22:27;39.45;;;25.40;;
45208;SDS011;30951;43.994;26.260;2023-02-28T11:24:55;35.15;;;23.08;;
45208;SDS011;30951;43.994;26.260;2023-02-28T11:27:46;33.20;;;21.52;;
45208;SDS011;30951;43.994;26.260;2023-02-28T11:30:25;26.83;;;14.13;;
45208;SDS011;30951;43.994;26.260;2023-02-28T11:32:52;32.05;;;21.85;;
45208;SDS011;30951;43.994;26.260;2023-02-28T11:35:39;37.92;;;22.83;;
45208;SDS011;30951;43.994;26.260;2023-02-28T11:38:05;33.78;;;22.27;;
45208;SDS011;30951;43.994;26.260;2023-02-28T11:40:37;39.58;;;24.60;;
45208;SDS011;30951;43.994;26.260;2023-02-28T11:43:06;32.88;;;20.40;;
45208;SDS011;30951;43.994;26.260;2023-02-28T11:45:52;38.70;;;26.88;;
45208;SDS011;30951;43.994;26.260;2023-02-28T11:51:02;42.65;;;25.58;;
45208;SDS011;30951;43.994;26.260;2023-02-28T11:56:41;38.67;;;24.92;;
45208;SDS011;30951;43.994;26.260;2023-02-28T12:05:16;35.20;;;24.63;;
45208;SDS011;30951;43.994;26.260;2023-02-28T12:08:00;40.70;;;23.15;;
45208;SDS011;30951;43.994;26.260;2023-02-28T12:13:36;52.72;;;30.08;;
45208;SDS011;30951;43.994;26.260;2023-02-28T12:16:26;86.03;;;41.60;;
45208;SDS011;30951;43.994;26.260;2023-02-28T12:22:10;51.38;;;28.67;;
45208;SDS011;30951;43.994;26.260;2023-02-28T12:24:55;127.93;;;52.95;;
45208;SDS011;30951;43.994;26.260;2023-02-28T12:28:00;253.57;;;92.93;;
45208;SDS011;30951;43.994;26.260;2023-02-28T12:30:27;185.90;;;71.93;;
45208;SDS011;30951;43.994;26.260;2023-02-28T12:35:56;135.15;;;57.28;;
45208;SDS011;30951;43.994;26.260;2023-02-28T12:38:23;228.10;;;87.70;;
45208;SDS011;30951;43.994;26.260;2023-02-28T12:41:05;199.98;;;77.68;;
45208;SDS011;30951;43.994;26.260;2023-02-28T12:43:43;274.15;;;97.03;;
45208;SDS011;30951;43.994;26.260;2023-02-28T12:46:12;85.38;;;38.60;;
45208;SDS011;30951;43.994;26.260;2023-02-28T12:48:58;180.30;;;71.55;;
45208;SDS011;30951;43.994;26.260;2023-02-28T12:51:27;75.82;;;35.17;;
45208;SDS011;30951;43.994;26.260;2023-02-28T12:54:14;182.60;;;75.25;;
45208;SDS011;30951;43.994;26.260;2023-02-28T12:56:43;42.83;;;21.30;;
45208;SDS011;30951;43.994;26.260;2023-02-28T12:59:15;140.27;;;63.53;;
45208;SDS011;30951;43.994;26.260;2023-02-28T13:08:49;117.20;;;67.78;;
45208;SDS011;30951;43.994;26.260;2023-02-28T13:10:52;80.25;;;46.10;;
45208;SDS011;30951;43.994;26.260;2023-02-28T13:13:22;63.13;;;36.83;;
45208;SDS011;30951;43.994;26.260;2023-02-28T13:16:01;52.97;;;30.85;;
45208;SDS011;30951;43.994;26.260;2023-02-28T13:21:05;24.80;;;17.45;;
45208;SDS011;30951;43.994;26.260;2023-02-28T13:23:37;26.35;;;20.13;;
45208;SDS011;30951;43.994;26.260;2023-02-28T13:26:06;32.08;;;23.17;;
45208;SDS011;30951;43.994;26.260;2023-02-28T13:31:15;38.85;;;24.45;;
45208;SDS011;30951;43.994;26.260;2023-02-28T13:38:41;25.75;;;18.60;;
45208;SDS011;30951;43.994;26.260;2023-02-28T13:44:08;31.50;;;22.60;;
45208;SDS011;30951;43.994;26.260;2023-02-28T14:00:23;25.48;;;17.25;;
45208;SDS011;30951;43.994;26.260;2023-02-28T14:05:41;25.17;;;19.00;;
45208;SDS011;30951;43.994;26.260;2023-02-28T14:08:14;24.10;;;17.75;;
45208;SDS011;30951;43.994;26.260;2023-02-28T14:10:49;22.67;;;16.42;;
45208;SDS011;30951;43.994;26.260;2023-02-28T14:16:09;28.20;;;19.35;;
45208;SDS011;30951;43.994;26.260;2023-02-28T14:18:36;26.10;;;18.60;;
45208;SDS011;30951;43.994;26.260;2023-02-28T14:26:49;29.00;;;20.88;;
45208;SDS011;30951;43.994;26.260;2023-02-28T14:32:26;28.75;;;19.65;;
45208;SDS011;30951;43.994;26.260;2023-02-28T14:37:37;33.33;;;23.58;;
45208;SDS011;30951;43.994;26.260;2023-02-28T14:40:04;36.63;;;25.90;;
45208;SDS011;30951;43.994;26.260;2023-02-28T14:42:37;45.28;;;29.23;;
45208;SDS011;30951;43.994;26.260;2023-02-28T14:45:03;43.03;;;31.20;;
45208;SDS011;30951;43.994;26.260;2023-02-28T14:47:33;37.15;;;25.77;;
45208;SDS011;30951;43.994;26.260;2023-02-28T14:49:59;41.38;;;27.10;;
45208;SDS011;30951;43.994;26.260;2023-02-28T14:52:27;44.33;;;31.25;;
45208;SDS011;30951;43.994;26.260;2023-02-28T14:55:01;48.67;;;33.75;;
45208;SDS011;30951;43.994;26.260;2023-02-28T14:57:31;36.67;;;26.08;;
45208;SDS011;30951;43.994;26.260;2023-02-28T15:02:39;36.28;;;25.25;;
45208;SDS011;30951;43.994;26.260;2023-02-28T15:07:43;38.38;;;23.48;;
45208;SDS011;30951;43.994;26.260;2023-02-28T15:15:18;39.10;;;27.15;;
45208;SDS011;30951;43.994;26.260;2023-02-28T15:17:46;41.03;;;27.27;;
45208;SDS011;30951;43.994;26.260;2023-02-28T15:20:14;42.50;;;28.08;;
45208;SDS011;30951;43.994;26.260;2023-02-28T15:22:41;44.35;;;28.45;;
45208;SDS011;30951;43.994;26.260;2023-02-28T15:25:06;45.65;;;29.63;;
45208;SDS011;30951;43.994;26.260;2023-02-28T15:27:33;43.78;;;27.77;;
45208;SDS011;30951;43.994;26.260;2023-02-28T15:30:04;40.35;;;27.92;;
45208;SDS011;30951;43.994;26.260;2023-02-28T15:32:32;51.25;;;31.60;;
45208;SDS011;30951;43.994;26.260;2023-02-28T15:35:16;42.20;;;27.30;;
45208;SDS011;30951;43.994;26.260;2023-02-28T15:37:56;49.05;;;30.88;;
45208;SDS011;30951;43.994;26.260;2023-02-28T15:40:23;43.60;;;27.00;;
45208;SDS011;30951;43.994;26.260;2023-02-28T15:48:13;48.92;;;31.05;;
45208;SDS011;30951;43.994;26.260;2023-02-28T15:50:41;43.13;;;29.65;;
45208;SDS011;30951;43.994;26.260;2023-02-28T15:53:12;42.67;;;27.98;;
45208;SDS011;30951;43.994;26.260;2023-02-28T15:55:41;46.92;;;29.50;;
45208;SDS011;30951;43.994;26.260;2023-02-28T15:58:08;44.85;;;29.17;;
45208;SDS011;30951;43.994;26.260;2023-02-28T16:00:36;46.55;;;29.90;;
45208;SDS011;30951;43.994;26.260;2023-02-28T16:03:21;53.00;;;31.50;;
45208;SDS011;30951;43.994;26.260;2023-02-28T16:05:50;44.15;;;28.98;;
45208;SDS011;30951;43.994;26.260;2023-02-28T16:08:43;49.40;;;32.90;;
45208;SDS011;30951;43.994;26.260;2023-02-28T16:11:09;47.20;;;31.52;;
45208;SDS011;30951;43.994;26.260;2023-02-28T16:13:35;53.45;;;33.35;;
45208;SDS011;30951;43.994;26.260;2023-02-28T16:16:01;47.63;;;29.15;;
45208;SDS011;30951;43.994;26.260;2023-02-28T16:18:27;42.85;;;28.33;;
45208;SDS011;30951;43.994;26.260;2023-02-28T16:20:52;42.53;;;26.52;;
45208;SDS011;30951;43.994;26.260;2023-02-28T16:23:17;45.53;;;27.60;;
45208;SDS011;30951;43.994;26.260;2023-02-28T16:25:43;48.15;;;30.60;;
45208;SDS011;30951;43.994;26.260;2023-02-28T16:28:20;49.33;;;33.22;;
45208;SDS011;30951;43.994;26.260;2023-02-28T16:30:51;49.60;;;33.35;;
45208;SDS011;30951;43.994;26.260;2023-02-28T16:33:17;40.85;;;28.10;;
45208;SDS011;30951;43.994;26.260;2023-02-28T16:35:42;47.38;;;29.75;;
45208;SDS011;30951;43.994;26.260;2023-02-28T16:38:08;44.83;;;28.67;;
45208;SDS011;30951;43.994;26.260;2023-02-28T16:40:34;42.67;;;26.65;;
45208;SDS011;30951;43.994;26.260;2023-02-28T16:43:00;44.95;;;28.90;;
45208;SDS011;30951;43.994;26.260;2023-02-28T16:45:30;45.92;;;29.40;;
45208;SDS011;30951;43.994;26.260;2023-02-28T16:47:56;43.92;;;27.58;;
45208;SDS011;30951;43.994;26.260;2023-02-28T16:50:22;45.80;;;28.40;;
45208;SDS011;30951;43.994;26.260;2023-02-28T16:52:50;42.92;;;27.55;;
45208;SDS011;30951;43.994;26.260;2023-02-28T16:55:17;45.50;;;27.92;;